Time;durP1;ratioP1;P1;durP2;ratioP2;P2;SDS_P1;SDS_P2;PMS_P1;PMS_P2;Temp;Humidity;BMP_temperature;BMP_pressure;BME280_temperature;BME280_humidity;BME280_pressure;Samples;Min_cycle;Max_cycle;Signal;HPM_P1;HPM_P2
2021/06/07 00:01:40;;;;;;;;;;;;;;;10.52;79.58;95940.52;1701927;84;20154;-60
2021/06/07 00:04:08;;;;;;;;;;;;;;;10.36;79.98;95931.94;1701850;84;20123;-60
2021/06/07 00:06:35;;;;;;;;;;;;;;;10.33;80.02;95928.89;1701501;84;20159;-60
2021/06/07 00:09:04;;;;;;;;;;;;;;;10.29;79.62;95936.40;1701918;84;20162;-60
2021/06/07 00:11:31;;;;;;;;;;;;;;;10.33;79.50;95931.95;1701709;84;20139;-61
2021/06/07 00:13:57;;;;;;;;;;;;;;;10.40;79.72;95919.98;1701660;84;20118;-60
2021/06/07 00:16:24;;;;;;;;;;;;;;;10.52;80.01;95924.23;1701728;84;20431;-60
2021/06/07 00:18:50;;;;;;;;;;;;;;;10.53;80.18;95924.69;1701979;84;20126;-60
2021/06/07 00:21:20;;;;;;;;;;;;;;;10.55;80.08;95920.69;1701454;84;20127;-60
2021/06/07 00:23:48;;;;;;;;;;;;;;;10.64;79.82;95921.89;1701907;84;20428;-60
2021/06/07 00:26:15;;;;;;;;;;;;;;;10.65;79.09;95921.44;1701605;84;20138;-59
2021/06/07 00:28:42;;;;;;;;;;;;;;;10.46;78.79;95920.38;1701899;84;20190;-60
2021/06/07 00:31:09;;;;;;;;;;;;;;;10.31;79.80;95920.57;1702033;84;20210;-59
2021/06/07 00:33:36;;;;;;;;;;;;;;;10.21;80.40;95921.09;1701845;84;20163;-60
2021/06/07 00:36:04;;;;;;;;;;;;;;;10.21;80.50;95922.86;1701883;84;20439;-60
2021/06/07 00:38:31;;;;;;;;;;;;;;;10.23;79.67;95922.37;1702202;84;20135;-60
2021/06/07 00:40:59;;;;;;;;;;;;;;;10.19;80.29;95920.23;1701559;84;20131;-60
2021/06/07 00:43:26;;;;;;;;;;;;;;;10.22;80.53;95916.23;1701909;84;20123;-60
2021/06/07 00:45:52;;;;;;;;;;;;;;;10.23;79.71;95911.82;1701995;84;20127;-61
2021/06/07 00:48:19;;;;;;;;;;;;;;;10.26;80.18;95908.72;1701901;84;20159;-60
2021/06/07 00:50:52;;;;;;;;;;;;;;;10.23;80.13;95902.17;1702004;84;20457;-62
2021/06/07 00:53:19;;;;;;;;;;;;;;;10.21;79.99;95902.63;1701027;84;20182;-60
2021/06/07 00:55:54;;;;;;;;;;;;;;;10.17;80.61;95916.28;1705555;84;20431;-60
2021/06/07 00:58:27;;;;;;;;;;;;;;;10.25;80.12;95902.13;1715623;84;20118;-60
2021/06/07 01:00:54;;;;;;;;;;;;;;;10.36;79.53;95902.47;1715593;84;20105;-60
2021/06/07 01:03:21;;;;;;;;;;;;;;;10.42;79.18;95901.51;1715562;84;20113;-60
2021/06/07 01:05:49;;;;;;;;;;;;;;;10.47;79.00;95894.41;1715630;84;20399;-62
2021/06/07 01:08:16;;;;;;;;;;;;;;;10.41;79.43;95901.09;1715736;84;20109;-60
2021/06/07 01:10:44;;;;;;;;;;;;;;;10.27;79.60;95901.22;1715872;84;20506;-60
2021/06/07 01:13:12;;;;;;;;;;;;;;;10.23;79.28;95900.85;1716560;83;20113;-60
2021/06/07 01:15:38;;;;;;;;;;;;;;;10.16;79.52;95899.18;1745228;82;20105;-60
2021/06/07 01:18:05;;;;;;;;;;;;;;;10.09;80.07;95896.19;1721334;83;20104;-60
2021/06/07 01:20:31;;;;;;;;;;;;;;;10.08;80.26;95901.01;1721318;83;20150;-60
2021/06/07 01:22:57;;;;;;;;;;;;;;;10.05;80.43;95906.32;1721104;83;20125;-61
2021/06/07 01:25:30;;;;;;;;;;;;;;;10.07;80.05;95904.55;1721507;83;20181;-60
2021/06/07 01:27:57;;;;;;;;;;;;;;;10.07;80.03;95902.78;1721139;83;20157;-61
2021/06/07 01:30:29;;;;;;;;;;;;;;;10.16;79.51;95900.05;1721050;83;20145;-59
2021/06/07 01:32:58;;;;;;;;;;;;;;;10.15;79.19;95896.99;1721066;83;20133;-59
2021/06/07 01:35:25;;;;;;;;;;;;;;;10.17;79.57;95899.14;1721462;83;20125;-60
2021/06/07 01:37:54;;;;;;;;;;;;;;;10.15;78.76;95896.09;1721417;83;20381;-60
2021/06/07 01:40:26;;;;;;;;;;;;;;;10.01;79.12;95894.95;1721054;83;20137;-59
2021/06/07 01:42:53;;;;;;;;;;;;;;;9.97;78.86;95903.77;1721460;83;20432;-60
2021/06/07 01:45:21;;;;;;;;;;;;;;;9.80;79.31;95903.09;1720976;83;20101;-60
2021/06/07 01:47:48;;;;;;;;;;;;;;;9.69;80.75;95898.80;1721624;83;20093;-60
2021/06/07 01:50:15;;;;;;;;;;;;;;;9.72;80.88;95900.53;1720954;83;20113;-60
2021/06/07 01:52:47;;;;;;;;;;;;;;;9.74;80.73;95901.39;1721166;83;20129;-60
2021/06/07 01:55:15;;;;;;;;;;;;;;;9.64;80.67;95898.43;1694674;83;20176;-60
2021/06/07 01:57:43;;;;;;;;;;;;;;;9.65;80.30;95907.64;1708829;84;20179;-60
2021/06/07 02:00:13;;;;;;;;;;;;;;;9.65;80.41;95901.48;1708504;84;20154;-60
2021/06/07 02:02:44;;;;;;;;;;;;;;;9.62;79.98;95903.70;1708840;84;20428;-59
2021/06/07 02:05:13;;;;;;;;;;;;;;;9.54;79.64;95902.45;1708782;84;20471;-59
2021/06/07 02:07:54;;;;;;;;;;;;;;;9.47;80.38;95909.12;1679826;84;20122;-59
2021/06/07 02:10:26;;;;;;;;;;;;;;;9.39;79.94;95906.55;1708709;84;20583;-60
2021/06/07 02:12:52;;;;;;;;;;;;;;;9.33;81.09;95911.02;1708872;84;20201;-59
2021/06/07 02:15:19;;;;;;;;;;;;;;;9.27;81.67;95910.61;1703462;83;20115;-59
2021/06/07 02:17:45;;;;;;;;;;;;;;;9.23;81.27;95901.01;1703155;84;20134;-59
2021/06/07 02:20:17;;;;;;;;;;;;;;;9.21;81.91;95897.06;1703305;84;20141;-60
2021/06/07 02:22:45;;;;;;;;;;;;;;;9.27;82.03;95896.12;1703349;84;20130;-59
2021/06/07 02:25:15;;;;;;;;;;;;;;;9.29;81.73;95893.91;1703131;84;20507;-60
2021/06/07 02:27:42;;;;;;;;;;;;;;;9.35;81.56;95900.91;1703322;84;20146;-60
2021/06/07 02:30:11;;;;;;;;;;;;;;;9.37;81.62;95900.42;1703334;84;20435;-60
2021/06/07 02:32:38;;;;;;;;;;;;;;;9.44;81.52;95897.30;1703124;84;20167;-60
2021/06/07 02:35:07;;;;;;;;;;;;;;;9.46;81.56;95892.90;1703333;84;20134;-60
2021/06/07 02:37:33;;;;;;;;;;;;;;;9.52;80.96;95883.61;1703079;84;20146;-60
2021/06/07 02:40:00;;;;;;;;;;;;;;;9.66;80.60;95887.44;1703354;84;20138;-59
2021/06/07 02:42:26;;;;;;;;;;;;;;;9.57;81.33;95883.56;1703237;84;20424;-59
2021/06/07 02:44:52;;;;;;;;;;;;;;;9.52;80.53;95892.41;1703115;84;20142;-60
2021/06/07 02:47:19;;;;;;;;;;;;;;;9.61;80.16;95891.88;1702839;84;20130;-59
2021/06/07 02:49:45;;;;;;;;;;;;;;;9.54;80.23;95884.47;1703283;84;20159;-59
2021/06/07 02:52:12;;;;;;;;;;;;;;;9.57;79.72;95886.20;1702894;84;20149;-60
2021/06/07 02:54:38;;;;;;;;;;;;;;;9.52;79.46;95893.72;1703328;84;20154;-60
2021/06/07 02:57:06;;;;;;;;;;;;;;;9.51;79.53;95893.73;1713385;84;20101;-60
2021/06/07 02:59:33;;;;;;;;;;;;;;;9.47;79.48;95891.55;1715777;84;20109;-60
2021/06/07 03:01:59;;;;;;;;;;;;;;;9.42;80.31;95892.48;1715944;84;20101;-60
2021/06/07 03:04:26;;;;;;;;;;;;;;;9.33;80.72;95893.91;1715565;84;20182;-60
2021/06/07 03:06:52;;;;;;;;;;;;;;;9.23;81.61;95898.38;1715432;84;20125;-60
2021/06/07 03:09:18;;;;;;;;;;;;;;;9.23;81.55;95896.61;1715944;84;20113;-60
2021/06/07 03:11:45;;;;;;;;;;;;;;;9.32;81.00;95900.91;1715728;84;20406;-60
2021/06/07 03:14:11;;;;;;;;;;;;;;;9.36;81.74;95898.69;1717490;83;20124;-60
2021/06/07 03:16:38;;;;;;;;;;;;;;;9.40;81.10;95902.16;1721659;83;20168;-59
2021/06/07 03:19:04;;;;;;;;;;;;;;;9.52;80.89;95900.31;1721359;83;20101;-59
2021/06/07 03:21:31;;;;;;;;;;;;;;;9.62;80.64;95899.75;1720945;83;20134;-59
2021/06/07 03:23:57;;;;;;;;;;;;;;;9.74;80.25;95902.27;1720938;83;20130;-59
2021/06/07 03:26:24;;;;;;;;;;;;;;;9.82;79.71;95902.17;1721323;83;20430;-59
2021/06/07 03:28:50;;;;;;;;;;;;;;;9.84;80.01;95899.09;1721070;83;20390;-59
2021/06/07 03:31:16;;;;;;;;;;;;;;;9.81;80.02;95905.72;1721441;83;20125;-59
2021/06/07 03:33:42;;;;;;;;;;;;;;;9.72;80.89;95904.48;1721204;83;20120;-60
2021/06/07 03:36:09;;;;;;;;;;;;;;;9.70;81.31;95908.89;1721202;83;20125;-60
2021/06/07 03:38:36;;;;;;;;;;;;;;;9.74;81.25;95915.44;1721234;83;20097;-60
2021/06/07 03:41:02;;;;;;;;;;;;;;;9.81;81.05;95912.30;1721546;83;20394;-60
2021/06/07 03:43:32;;;;;;;;;;;;;;;9.90;81.25;95904.73;1721273;83;20169;-60
2021/06/07 03:45:58;;;;;;;;;;;;;;;9.97;81.09;95906.41;1721505;82;20154;-60
2021/06/07 03:48:25;;;;;;;;;;;;;;;10.06;81.65;95913.36;1721236;83;20129;-59
2021/06/07 03:50:52;;;;;;;;;;;;;;;10.21;81.44;95911.86;1721408;83;20474;-60
2021/06/07 03:53:19;;;;;;;;;;;;;;;10.33;81.66;95909.53;1721134;83;20113;-59
2021/06/07 03:55:45;;;;;;;;;;;;;;;10.52;81.10;95911.05;1717682;83;20171;-59
2021/06/07 03:58:11;;;;;;;;;;;;;;;10.67;80.68;95913.06;1708801;84;20157;-60
2021/06/07 04:00:39;;;;;;;;;;;;;;;10.79;80.39;95902.34;1708433;84;20146;-60
2021/06/07 04:03:07;;;;;;;;;;;;;;;10.89;80.20;95897.34;1708743;84;20439;-59
2021/06/07 04:05:34;;;;;;;;;;;;;;;11.01;80.27;95903.77;1708775;84;20166;-60
2021/06/07 04:08:01;;;;;;;;;;;;;;;11.05;80.31;95905.89;1708575;84;20428;-60
2021/06/07 04:10:28;;;;;;;;;;;;;;;11.14;80.07;95902.25;1708341;84;20114;-60
2021/06/07 04:12:55;;;;;;;;;;;;;;;11.17;80.14;95907.02;1708810;84;20452;-60
2021/06/07 04:15:24;;;;;;;;;;;;;;;11.25;80.38;95905.12;1704581;83;20439;-60
2021/06/07 04:17:53;;;;;;;;;;;;;;;11.35;80.09;95903.21;1703212;84;20134;-60
2021/06/07 04:20:22;;;;;;;;;;;;;;;11.40;80.46;95905.32;1703137;84;20134;-60
2021/06/07 04:22:48;;;;;;;;;;;;;;;11.42;80.91;95905.31;1703028;84;20135;-60
2021/06/07 04:25:17;;;;;;;;;;;;;;;11.47;80.71;95906.11;1703131;84;20436;-60
2021/06/07 04:27:44;;;;;;;;;;;;;;;11.60;80.49;95901.48;1673721;84;20135;-60
2021/06/07 04:30:15;;;;;;;;;;;;;;;11.70;80.44;95907.02;1702913;84;20178;-60
2021/06/07 04:32:42;;;;;;;;;;;;;;;11.78;80.85;95901.59;1703087;84;20123;-60
2021/06/07 04:35:10;;;;;;;;;;;;;;;11.86;80.70;95904.53;1702831;84;20460;-60
2021/06/07 04:37:41;;;;;;;;;;;;;;;11.97;80.67;95907.00;1703196;84;20154;-60
2021/06/07 04:40:07;;;;;;;;;;;;;;;12.06;80.37;95904.61;1702657;84;20139;-60
2021/06/07 04:42:33;;;;;;;;;;;;;;;12.16;80.49;95906.63;1703262;84;20138;-61
2021/06/07 04:45:00;;;;;;;;;;;;;;;12.24;80.69;95906.02;1703010;84;20138;-60
2021/06/07 04:47:26;;;;;;;;;;;;;;;12.37;80.23;95903.99;1702987;84;20154;-60
2021/06/07 04:49:52;;;;;;;;;;;;;;;12.48;79.83;95905.52;1702881;84;20135;-60
2021/06/07 04:52:19;;;;;;;;;;;;;;;12.61;79.79;95905.27;1703124;84;20421;-62
2021/06/07 04:54:45;;;;;;;;;;;;;;;12.69;79.55;95908.61;1703329;84;20461;-59
2021/06/07 04:57:11;;;;;;;;;;;;;;;12.79;79.29;95899.56;1714024;84;20098;-60
2021/06/07 04:59:38;;;;;;;;;;;;;;;12.91;79.26;95895.77;1715678;84;20149;-60
2021/06/07 05:02:04;;;;;;;;;;;;;;;13.04;78.70;95905.17;1730272;82;20157;-61
2021/06/07 05:04:31;;;;;;;;;;;;;;;13.15;79.07;95903.59;1727471;82;20097;-60
2021/06/07 05:06:57;;;;;;;;;;;;;;;13.27;78.58;95903.33;1728429;82;20094;-62
2021/06/07 05:09:23;;;;;;;;;;;;;;;13.38;78.65;95898.66;1725480;82;20138;-62
2021/06/07 05:11:49;;;;;;;;;;;;;;;13.50;78.91;95889.50;1726857;82;20118;-62
2021/06/07 05:14:16;;;;;;;;;;;;;;;13.62;78.46;95900.27;1717796;83;20113;-63
2021/06/07 05:16:42;;;;;;;;;;;;;;;13.70;78.15;95893.44;1721394;83;20133;-64
2021/06/07 05:19:08;;;;;;;;;;;;;;;13.80;77.31;95894.47;1721067;83;20165;-62
2021/06/07 05:21:35;;;;;;;;;;;;;;;13.94;75.57;95890.60;1721115;83;20114;-63
2021/06/07 05:24:01;;;;;;;;;;;;;;;14.06;74.26;95896.44;1721387;83;20113;-63
2021/06/07 05:26:28;;;;;;;;;;;;;;;14.21;74.99;95896.48;1721043;83;20152;-63
2021/06/07 05:28:54;;;;;;;;;;;;;;;14.33;74.57;95895.23;1721333;83;20156;-63
2021/06/07 05:31:20;;;;;;;;;;;;;;;14.50;73.96;95892.11;1721439;83;20113;-60
2021/06/07 05:33:47;;;;;;;;;;;;;;;14.66;73.31;95888.10;1721281;83;20427;-62
2021/06/07 05:36:13;;;;;;;;;;;;;;;14.84;71.19;95897.33;1721406;83;20406;-61
2021/06/07 05:38:39;;;;;;;;;;;;;;;15.04;72.37;95898.48;1717568;82;20106;-63
2021/06/07 05:41:05;;;;;;;;;;;;;;;15.30;73.02;95893.69;1720591;82;20411;-62
2021/06/07 05:43:32;;;;;;;;;;;;;;;15.51;73.14;95894.30;1723859;82;20197;-64
2021/06/07 05:45:58;;;;;;;;;;;;;;;15.69;72.62;95891.95;1726081;82;20174;-63
2021/06/07 05:48:24;;;;;;;;;;;;;;;15.89;71.63;95899.28;1723967;82;20098;-61
2021/06/07 05:50:51;;;;;;;;;;;;;;;16.09;72.00;95896.78;1698439;84;20189;-61
2021/06/07 05:53:19;;;;;;;;;;;;;;;16.29;70.58;95896.55;1716106;83;20106;-63
2021/06/07 05:55:46;;;;;;;;;;;;;;;16.42;70.70;95900.48;1716225;83;20102;-63
2021/06/07 05:58:18;;;;;;;;;;;;;;;16.60;70.72;95905.12;1707746;83;20121;-62
2021/06/07 06:00:46;;;;;;;;;;;;;;;16.70;70.31;95904.33;1702728;83;20107;-62
2021/06/07 06:03:13;;;;;;;;;;;;;;;16.83;69.92;95899.43;1719124;83;20497;-64
2021/06/07 06:05:40;;;;;;;;;;;;;;;16.96;69.82;95898.48;1715823;83;20111;-64
2021/06/07 06:08:16;;;;;;;;;;;;;;;17.05;69.26;95903.47;1704630;83;20137;-63
2021/06/07 06:10:43;;;;;;;;;;;;;;;17.20;68.74;95905.53;1707633;83;20113;-62
2021/06/07 06:13:09;;;;;;;;;;;;;;;17.35;68.53;95904.53;1709945;83;20184;-63
2021/06/07 06:15:35;;;;;;;;;;;;;;;17.46;67.75;95904.51;1700427;83;20165;-64
2021/06/07 06:18:02;;;;;;;;;;;;;;;17.57;67.17;95897.39;1702558;83;20171;-63
2021/06/07 06:20:33;;;;;;;;;;;;;;;17.67;67.61;95897.88;1702096;83;20117;-62
2021/06/07 06:23:00;;;;;;;;;;;;;;;17.73;66.81;95897.61;1693630;83;20113;-61
2021/06/07 06:25:27;;;;;;;;;;;;;;;17.88;67.12;95897.47;1704231;83;20114;-61
2021/06/07 06:27:54;;;;;;;;;;;;;;;18.02;67.13;95896.89;1700532;84;20110;-61
2021/06/07 06:30:24;;;;;;;;;;;;;;;18.10;66.53;95892.94;1700516;84;20144;-63
2021/06/07 06:32:53;;;;;;;;;;;;;;;18.17;64.24;95896.23;1700630;84;20107;-64
2021/06/07 06:35:20;;;;;;;;;;;;;;;18.26;64.74;95892.27;1700490;84;20103;-62
2021/06/07 06:37:47;;;;;;;;;;;;;;;18.32;63.21;95890.20;1700130;84;20142;-62
2021/06/07 06:40:18;;;;;;;;;;;;;;;18.45;64.35;95896.34;1700484;84;20102;-63
2021/06/07 06:42:45;;;;;;;;;;;;;;;18.59;64.33;95899.23;1700665;84;20134;-61
2021/06/07 06:45:14;;;;;;;;;;;;;;;18.70;63.09;95898.30;1700420;84;20104;-62
2021/06/07 06:47:41;;;;;;;;;;;;;;;18.81;62.30;95900.02;1700696;84;20167;-63
2021/06/07 06:50:09;;;;;;;;;;;;;;;18.94;60.71;95895.45;1700511;84;20396;-62
2021/06/07 06:52:36;;;;;;;;;;;;;;;19.04;59.56;95888.73;1700887;84;20156;-62
2021/06/07 06:55:04;;;;;;;;;;;;;;;19.13;57.47;95889.64;1700388;84;20125;-61
2021/06/07 06:57:31;;;;;;;;;;;;;;;19.24;58.93;95891.31;1672572;86;20104;-62
2021/06/07 06:59:57;;;;;;;;;;;;;;;19.29;55.03;95895.59;1672326;86;20104;-62
2021/06/07 07:02:23;;;;;;;;;;;;;;;19.36;56.44;95895.70;1672077;86;20403;-61
2021/06/07 07:04:49;;;;;;;;;;;;;;;19.46;56.61;95890.30;1672382;86;20108;-61
2021/06/07 07:07:16;;;;;;;;;;;;;;;19.57;56.60;95891.95;1672536;86;20132;-59
2021/06/07 07:09:43;;;;;;;;;;;;;;;19.64;52.10;95888.03;1672697;86;20112;-60
2021/06/07 07:12:11;;;;;;;;;;;;;;;19.66;50.03;95891.51;1672289;86;20105;-60
2021/06/07 07:14:39;;;;;;;;;;;;;;;19.64;50.78;95890.71;1673053;86;20093;-61
2021/06/07 07:17:05;;;;;;;;;;;;;;;19.74;53.63;95888.96;1677718;85;20140;-60
2021/06/07 07:19:33;;;;;;;;;;;;;;;19.90;54.73;95891.24;1677840;85;20156;-60
2021/06/07 07:22:01;;;;;;;;;;;;;;;20.06;54.22;95892.69;1677937;86;20481;-61
2021/06/07 07:24:27;;;;;;;;;;;;;;;20.12;48.07;95887.48;1677534;86;20160;-61
2021/06/07 07:26:55;;;;;;;;;;;;;;;20.19;49.82;95888.91;1678768;84;20108;-62
2021/06/07 07:29:23;;;;;;;;;;;;;;;20.26;52.37;95889.84;1699974;83;20139;-62
2021/06/07 07:31:49;;;;;;;;;;;;;;;20.39;51.58;95889.20;1696452;85;20480;-63
2021/06/07 07:34:16;;;;;;;;;;;;;;;20.49;48.45;95890.45;1695767;84;20241;-62
2021/06/07 07:36:42;;;;;;;;;;;;;;;20.62;50.38;95886.19;1696503;84;20158;-62
2021/06/07 07:39:09;;;;;;;;;;;;;;;20.74;48.31;95890.90;1695967;85;20163;-62
2021/06/07 07:41:35;;;;;;;;;;;;;;;20.86;47.14;95888.48;1696173;85;20131;-62
2021/06/07 07:44:02;;;;;;;;;;;;;;;20.99;49.46;95892.25;1696349;84;20269;-62
2021/06/07 07:46:29;;;;;;;;;;;;;;;21.14;48.12;95887.38;1710915;84;20138;-60
2021/06/07 07:48:55;;;;;;;;;;;;;;;21.17;46.85;95897.07;1711563;84;20158;-62
2021/06/07 07:51:21;;;;;;;;;;;;;;;21.30;47.54;95890.54;1711865;84;20133;-60
2021/06/07 07:53:47;;;;;;;;;;;;;;;;;;1711699;84;20167;-60
2021/06/07 07:56:14;;;;;;;;;;;;;;;21.55;48.08;95888.22;1716268;83;20093;-61
2021/06/07 07:58:40;;;;;;;;;;;;;;;21.61;45.83;95886.52;1721056;83;20137;-62
2021/06/07 08:01:06;;;;;;;;;;;;;;;21.77;46.45;95889.20;1723097;82;20105;-61
2021/06/07 08:03:33;;;;;;;;;;;;;;;21.94;47.50;95885.50;1703440;84;20169;-61
2021/06/07 08:06:00;;;;;;;;;;;;;;;22.12;45.10;95883.54;1729314;82;20103;-61
2021/06/07 08:08:27;;;;;;;;;;;;;;;22.30;46.84;95884.77;1725172;82;20483;-60
2021/06/07 08:10:56;;;;;;;;;;;;;;;22.36;43.22;95883.94;1731801;82;20110;-61
2021/06/07 08:13:23;;;;;;;;;;;;;;;22.49;43.13;95884.05;1729840;82;20452;-61
2021/06/07 08:15:50;;;;;;;;;;;;;;;22.72;45.13;95892.04;1728476;82;20111;-61
2021/06/07 08:18:16;;;;;;;;;;;;;;;22.92;44.76;95892.14;1711830;83;20111;-61
2021/06/07 08:20:43;;;;;;;;;;;;;;;22.88;40.48;95891.94;1713138;83;20170;-60
2021/06/07 08:23:10;;;;;;;;;;;;;;;22.67;43.92;95896.35;1688378;83;20404;-61
2021/06/07 08:25:36;;;;;;;;;;;;;;;22.60;39.18;95890.99;1695897;83;20116;-61
2021/06/07 08:28:05;;;;;;;;;;;;;;;22.42;42.15;95896.98;1694296;83;20146;-63
2021/06/07 08:30:33;;;;;;;;;;;;;;;22.24;43.29;95898.11;1681459;84;20130;-60
2021/06/07 08:32:59;;;;;;;;;;;;;;;22.17;44.05;95909.66;1700381;83;20106;-61
2021/06/07 08:35:26;;;;;;;;;;;;;;;21.87;40.72;95908.30;1708983;83;20381;-60
2021/06/07 08:37:52;;;;;;;;;;;;;;;21.70;43.59;95905.27;1682960;84;20153;-59
2021/06/07 08:40:18;;;;;;;;;;;;;;;21.56;46.08;95911.42;1702230;84;20459;-59
2021/06/07 08:42:45;;;;;;;;;;;;;;;21.48;45.39;95914.16;1702796;84;20408;-60
2021/06/07 08:45:15;;;;;;;;;;;;;;;21.35;45.38;95909.45;1702542;84;20178;-60
2021/06/07 08:47:42;;;;;;;;;;;;;;;21.37;46.58;95908.03;1701604;84;20114;-60
2021/06/07 08:50:10;;;;;;;;;;;;;;;21.69;46.02;95906.69;1702484;84;20106;-60
2021/06/07 08:52:42;;;;;;;;;;;;;;;21.83;46.26;95901.39;1702609;84;20130;-60
2021/06/07 08:55:07;;;;;;;;;;;;;;;21.86;45.34;95904.38;1702148;84;20134;-61
2021/06/07 08:57:42;;;;;;;;;;;;;;;21.82;44.54;95903.22;1687172;85;20115;-60
2021/06/07 09:00:12;;;;;;;;;;;;;;;21.72;42.49;95906.51;1686557;85;20104;-60
2021/06/07 09:02:40;;;;;;;;;;;;;;;21.73;45.00;95905.57;1687221;85;20099;-59
2021/06/07 09:05:08;;;;;;;;;;;;;;;21.65;45.07;95909.19;1715667;84;20098;-59
2021/06/07 09:07:55;;;;;;;;;;;;;;;21.54;46.94;95908.43;1715632;84;20103;-59
2021/06/07 09:10:22;;;;;;;;;;;;;;;21.45;44.38;95906.29;1715862;84;20154;-59
2021/06/07 09:12:58;;;;;;;;;;;;;;;21.38;45.82;95903.05;1715910;84;20127;-60
2021/06/07 09:15:33;;;;;;;;;;;;;;;21.30;46.17;95906.16;1717359;83;20119;-59
2021/06/07 09:18:00;;;;;;;;;;;;;;;21.17;46.70;95903.30;1723691;83;20111;-59
2021/06/07 09:20:27;;;;;;;;;;;;;;;21.03;46.66;95908.55;1723527;83;20412;-59
2021/06/07 09:23:04;;;;;;;;;;;;;;;20.92;47.30;95901.58;1723442;83;20103;-60
2021/06/07 09:25:33;;;;;;;;;;;;;;;20.86;49.31;95904.09;1723384;83;20092;-59
2021/06/07 09:28:06;;;;;;;;;;;;;;;20.83;49.13;95903.41;1723587;83;20099;-59
2021/06/07 09:30:38;;;;;;;;;;;;;;;20.70;48.12;95900.05;1723689;83;20083;-59
2021/06/07 09:33:20;;;;;;;;;;;;;;;20.65;49.00;95898.09;1723546;83;20106;-59
2021/06/07 09:36:05;;;;;;;;;;;;;;;20.55;51.15;95905.37;1723775;83;20103;-59
2021/06/07 09:38:32;;;;;;;;;;;;;;;20.50;51.74;95900.22;1723892;83;20083;-59
2021/06/07 09:41:01;;;;;;;;;;;;;;;20.49;50.36;95899.35;1723490;83;20099;-59
2021/06/07 09:43:31;;;;;;;;;;;;;;;20.56;52.34;95898.56;1723205;83;20099;-59
2021/06/07 09:46:01;;;;;;;;;;;;;;;20.65;53.50;95896.75;1723834;83;20107;-60
2021/06/07 09:48:28;;;;;;;;;;;;;;;20.71;50.23;95898.22;1723731;82;20397;-59
2021/06/07 09:51:02;;;;;;;;;;;;;;;20.74;52.16;95902.11;1723854;83;20107;-59
2021/06/07 09:53:48;;;;;;;;;;;;;;;20.78;54.24;95895.61;1723650;83;20107;-60
2021/06/07 09:56:16;;;;;;;;;;;;;;;20.83;55.38;95900.25;1719580;83;20114;-59
2021/06/07 09:58:44;;;;;;;;;;;;;;;20.91;53.46;95890.44;1685739;84;20495;-59
2021/06/07 10:01:14;;;;;;;;;;;;;;;21.04;53.12;95898.23;1687398;85;20104;-61
2021/06/07 10:03:43;;;;;;;;;;;;;;;21.11;52.28;95898.73;1685921;85;20107;-59
2021/06/07 10:06:25;;;;;;;;;;;;;;;21.24;53.68;95898.44;1687390;84;20091;-59
2021/06/07 10:08:58;;;;;;;;;;;;;;;21.79;50.28;95886.41;1685749;85;20155;-59
2021/06/07 10:11:35;;;;;;;;;;;;;;;22.17;52.18;95884.13;1687386;85;20409;-59
2021/06/07 10:14:19;;;;;;;;;;;;;;;22.33;50.74;95880.58;1685904;85;20112;-60
2021/06/07 10:17:00;;;;;;;;;;;;;;;22.58;50.18;95875.42;1682424;85;20132;-60
2021/06/07 10:22:04;;;;;;;;;;;;;;;23.27;47.14;95871.58;1654197;85;20112;-59
2021/06/07 10:24:31;;;;;;;;;;;;;;;23.66;46.61;95864.08;1678317;86;20117;-61
2021/06/07 10:26:57;;;;;;;;;;;;;;;24.15;45.17;95864.84;1679960;85;20394;-59
2021/06/07 10:29:35;;;;;;;;;;;;;;;24.58;43.73;95859.20;1678335;85;20136;-59
2021/06/07 10:32:10;;;;;;;;;;;;;;;24.55;38.91;95864.82;1679749;85;20398;-60
2021/06/07 10:34:53;;;;;;;;;;;;;;;24.19;41.01;95862.33;1695623;84;20451;-59
2021/06/07 10:37:20;;;;;;;;;;;;;;;24.05;41.71;95864.23;1695488;85;20451;-60
2021/06/07 10:39:48;;;;;;;;;;;;;;;23.71;40.45;95859.25;1695355;85;20127;-60
2021/06/07 10:42:19;;;;;;;;;;;;;;;23.78;41.44;95857.52;1695137;85;20118;-61
2021/06/07 10:44:55;;;;;;;;;;;;;;;23.87;44.05;95853.72;1695650;85;20127;-60
2021/06/07 10:47:28;;;;;;;;;;;;;;;24.28;43.71;95854.08;1695109;84;20134;-60
2021/06/07 10:50:07;;;;;;;;;;;;;;;24.72;42.15;95851.50;1695625;85;20175;-59
2021/06/07 10:52:42;;;;;;;;;;;;;;;25.03;42.50;95845.26;1693964;85;20134;-60
2021/06/07 10:55:11;;;;;;;;;;;;;;;25.31;38.96;95847.34;1695539;84;20127;-60
2021/06/07 10:57:57;;;;;;;;;;;;;;;25.57;37.51;95836.80;1707942;84;20105;-59
2021/06/07 11:00:35;;;;;;;;;;;;;;;25.75;40.71;95833.21;1708236;83;20118;-59
2021/06/07 11:03:20;;;;;;;;;;;;;;;25.89;39.93;95831.72;1708111;84;20424;-59
2021/06/07 11:05:48;;;;;;;;;;;;;;;26.06;38.30;95826.89;1708234;83;20106;-59
2021/06/07 11:08:22;;;;;;;;;;;;;;;26.21;34.71;95827.05;1708067;84;20122;-60
2021/06/07 11:11:09;;;;;;;;;;;;;;;26.18;35.70;95827.77;1708072;84;20387;-60
2021/06/07 11:13:54;;;;;;;;;;;;;;;26.03;36.59;95825.28;1707997;84;20415;-60
2021/06/07 11:16:32;;;;;;;;;;;;;;;26.02;34.86;95814.57;1710693;84;20447;-60
2021/06/07 11:19:04;;;;;;;;;;;;;;;26.30;36.59;95811.45;1716015;84;20101;-59
2021/06/07 11:21:37;;;;;;;;;;;;;;;26.41;36.11;95806.58;1715961;82;20105;-60
2021/06/07 11:24:27;;;;;;;;;;;;;;;26.47;34.92;95803.38;1716210;81;20181;-60
2021/06/07 11:26:55;;;;;;;;;;;;;;;26.65;36.60;95805.15;1715966;84;20101;-59
2021/06/07 11:29:21;;;;;;;;;;;;;;;26.90;38.50;95808.11;1715910;83;20406;-60
2021/06/07 11:31:51;;;;;;;;;;;;;;;26.94;36.99;95808.74;1715979;84;20110;-59
2021/06/07 11:34:22;;;;;;;;;;;;;;;26.87;34.91;95802.95;1716086;84;20113;-60
2021/06/07 11:36:59;;;;;;;;;;;;;;;26.55;32.92;95796.89;1697722;84;20133;-60
2021/06/07 11:39:45;;;;;;;;;;;;;;;26.36;34.53;95801.13;1715816;84;20113;-59
2021/06/07 11:42:14;;;;;;;;;;;;;;;26.37;36.45;95800.16;1715802;83;20105;-60
2021/06/07 11:44:47;;;;;;;;;;;;;;;26.28;32.71;95795.86;1715898;83;20112;-60
2021/06/07 11:47:40;;;;;;;;;;;;;;;26.24;31.78;95793.00;1715804;84;20121;-60
2021/06/07 11:50:13;;;;;;;;;;;;;;;26.26;31.58;95792.40;1715507;83;20373;-60
2021/06/07 11:52:50;;;;;;;;;;;;;;;26.37;32.54;95790.20;1716589;81;20109;-60
2021/06/07 11:55:32;;;;;;;;;;;;;;;26.51;30.63;95785.03;1714837;84;20412;-60
2021/06/07 11:58:19;;;;;;;;;;;;;;;26.46;29.91;95784.54;1703220;84;20126;-60
2021/06/07 12:00:54;;;;;;;;;;;;;;;26.53;32.84;95780.41;1702335;84;20139;-61
2021/06/07 12:03:31;;;;;;;;;;;;;;;26.64;31.83;95788.55;1703148;84;20138;-60
2021/06/07 12:05:58;;;;;;;;;;;;;;;27.02;34.64;95774.27;1703612;84;20182;-60
2021/06/07 12:08:26;;;;;;;;;;;;;;;27.59;35.43;95780.84;1703454;84;20123;-61
2021/06/07 12:10:54;;;;;;;;;;;;;;;28.04;29.16;95775.73;1703020;84;20158;-60
2021/06/07 12:13:35;;;;;;;;;;;;;;;28.27;29.20;95772.39;1703502;84;20130;-61
2021/06/07 12:16:07;;;;;;;;;;;;;;;28.62;27.61;95778.00;1677465;83;20119;-60
2021/06/07 12:18:39;;;;;;;;;;;;;;;29.06;29.55;95771.88;1728892;83;20133;-60
2021/06/07 12:21:15;;;;;;;;;;;;;;;29.33;27.64;95772.11;1727416;83;20098;-61
2021/06/07 12:23:48;;;;;;;;;;;;;;;29.70;28.58;95769.25;1729250;83;20106;-62
2021/06/07 12:29:28;;;;;;;;;;;;;;;29.60;26.78;95766.99;1729134;83;20121;-61
2021/06/07 12:32:07;;;;;;;;;;;;;;;29.70;26.59;95763.81;1728932;83;20097;-62
2021/06/07 12:34:39;;;;;;;;;;;;;;;29.68;24.53;95763.94;1728835;83;20104;-62
2021/06/07 12:37:06;;;;;;;;;;;;;;;29.45;25.81;95762.45;1725543;83;20122;-61
2021/06/07 12:39:32;;;;;;;;;;;;;;;29.24;26.38;95759.84;1702306;83;20109;-61
2021/06/07 12:41:59;;;;;;;;;;;;;;;29.06;29.77;95764.59;1728851;83;20108;-61
2021/06/07 12:44:26;;;;;;;;;;;;;;;28.77;27.35;95770.36;1728911;83;20097;-61
2021/06/07 12:46:55;;;;;;;;;;;;;;;28.89;27.43;95766.55;1728993;83;20120;-61
2021/06/07 12:49:27;;;;;;;;;;;;;;;28.72;28.59;95769.41;1728987;83;20118;-61
2021/06/07 12:51:59;;;;;;;;;;;;;;;28.86;27.31;95770.41;1729064;83;20121;-61
2021/06/07 12:54:27;;;;;;;;;;;;;;;28.79;27.01;95765.16;1728156;83;20098;-61
2021/06/07 12:56:54;;;;;;;;;;;;;;;28.94;29.36;95768.87;1728902;83;20145;-61
2021/06/07 12:59:31;;;;;;;;;;;;;;;29.34;27.53;95764.30;1728632;83;20149;-61
2021/06/07 13:01:58;;;;;;;;;;;;;;;29.64;27.03;95761.64;1729100;83;20096;-62
2021/06/07 13:04:29;;;;;;;;;;;;;;;30.14;27.68;95760.17;1729186;83;20383;-61